Time;durP1;ratioP1;P1;durP2;ratioP2;P2;SDS_P1;SDS_P2;PMS_P1;PMS_P2;Temp;Humidity;BMP_temperature;BMP_pressure;BME280_temperature;BME280_humidity;BME280_pressure;Samples;Min_cycle;Max_cycle;Signal;HPM_P1;HPM_P2
2022/02/10 00:18:23;;;;;;;13.70;6.70;;;3.80;71.40;;;;;;5161557;27;20330;-39
2022/02/10 00:20:54;;;;;;;16.30;7.10;;;3.80;71.30;;;;;;5161312;27;20043;-39
2022/02/10 00:34:16;;;;;;;18.13;6.43;;;3.70;71.20;;;;;;5161682;27;20429;-39
2022/02/10 00:42:08;;;;;;;14.90;6.27;;;3.60;71.40;;;;;;5161339;27;20323;-38
2022/02/10 00:44:33;;;;;;;16.25;5.47;;;3.70;71.60;;;;;;5161150;27;20686;-39
2022/02/10 00:46:59;;;;;;;14.38;6.57;;;3.70;71.70;;;;;;5161047;27;20031;-48
2022/02/10 00:49:25;;;;;;;14.70;6.40;;;3.60;71.70;;;;;;5161163;27;20029;-38
2022/02/10 00:51:51;;;;;;;16.83;6.53;;;3.60;71.80;;;;;;5161017;27;20031;-39
2022/02/10 00:54:22;;;;;;;13.23;6.47;;;3.60;71.80;;;;;;5160924;27;20095;-39
2022/02/10 00:56:48;;;;;;;15.35;6.10;;;3.70;72.10;;;;;;5160865;27;20023;-39
2022/02/10 01:12:48;;;;;;;10.35;5.10;;;3.70;72.30;;;;;;5160694;27;20447;-38
2022/02/10 01:31:40;;;;;;;14.18;6.60;;;3.80;72.40;;;;;;5160132;27;20042;-50
2022/02/10 01:34:07;;;;;;;15.02;6.50;;;3.90;72.30;;;;;;5160488;27;20031;-39
2022/02/10 01:36:33;;;;;;;16.35;6.18;;;3.90;72.40;;;;;;5159983;27;20034;-39
2022/02/10 01:38:59;;;;;;;15.07;6.55;;;3.90;72.30;;;;;;5160569;27;20244;-50
2022/02/10 02:04:01;;;;;;;17.33;7.22;;;4.00;72.60;;;;;;5116172;28;20024;-48
2022/02/10 02:06:34;;;;;;;19.67;7.55;;;4.00;72.80;;;;;;5115862;28;20039;-46
2022/02/10 02:09:02;;;;;;;18.35;7.22;;;4.00;72.90;;;;;;5139134;27;20034;-46
2022/02/10 02:11:28;;;;;;;22.60;7.63;;;4.00;73.10;;;;;;5159607;27;20037;-39
2022/02/10 02:13:54;;;;;;;15.25;7.55;;;4.00;73.20;;;;;;5159508;27;20454;-39
2022/02/10 02:16:19;;;;;;;16.92;7.22;;;4.00;73.30;;;;;;5159300;27;20057;-40
2022/02/10 02:18:45;;;;;;;20.00;7.18;;;4.00;73.50;;;;;;5159372;27;20047;-39
2022/02/10 02:21:17;;;;;;;16.63;6.57;;;4.00;73.60;;;;;;5159322;27;20031;-46
2022/02/10 02:23:43;;;;;;;13.73;7.70;;;4.00;73.70;;;;;;5159224;27;20029;-39
2022/02/10 02:26:14;;;;;;;20.52;7.43;;;4.00;73.80;;;;;;5158948;27;20038;-41
2022/02/10 02:28:44;;;;;;;16.27;7.20;;;4.00;74.00;;;;;;5159089;27;20030;-39
2022/02/10 02:31:15;;;;;;;15.93;7.55;;;4.00;74.00;;;;;;5158883;27;20035;-39
2022/02/10 03:06:39;;;;;;;17.00;7.47;;;4.20;75.20;;;;;;5158406;27;20060;-39
2022/02/10 03:09:19;;;;;;;18.23;7.78;;;4.20;75.30;;;;;;5158472;27;20035;-39
2022/02/10 03:11:45;;;;;;;20.35;8.65;;;4.30;75.40;;;;;;5158205;27;20031;-39
2022/02/10 03:14:15;;;;;;;21.38;8.60;;;4.30;75.40;;;;;;5158424;27;20099;-48
2022/02/10 04:15:01;;;;;;;16.48;9.05;;;4.70;78.50;;;;;;5157642;27;20031;-39
2022/02/10 04:18:10;;;;;;;12.55;7.35;;;4.70;78.70;;;;;;5157767;27;20079;-48
2022/02/10 04:25:45;;;;;;;15.43;8.48;;;4.80;79.70;;;;;;5157827;27;20030;-42
2022/02/10 05:21:35;;;;;;;14.98;9.90;;;5.60;84.10;;;;;;5160567;27;20063;-46
2022/02/10 05:34:36;;;;;;;15.40;10.20;;;5.70;85.00;;;;;;5160363;27;20033;-50
2022/02/10 05:37:03;;;;;;;15.70;9.70;;;5.70;85.10;;;;;;5160408;27;20375;-39
2022/02/10 05:39:31;;;;;;;16.88;10.30;;;5.70;85.10;;;;;;5160176;27;20027;-46
2022/02/10 06:53:33;;;;;;;21.77;13.57;;;6.90;83.50;;;;;;5117102;28;20030;-43
2022/02/10 07:57:25;;;;;;;22.45;13.93;;;7.60;79.30;;;;;;5113822;28;20035;-41
2022/02/10 08:00:20;;;;;;;23.20;13.68;;;7.60;79.90;;;;;;5116107;28;20047;-45
2022/02/10 09:04:17;;;;;;;23.38;15.95;;;8.20;78.30;;;;;;5119013;28;20127;-43
2022/02/10 09:12:13;;;;;;;22.58;14.45;;;8.30;77.80;;;;;;5118349;28;20020;-44
2022/02/10 10:02:35;;;;;;;21.88;12.30;;;9.30;74.10;;;;;;5117234;28;20122;-49
2022/02/10 10:05:22;;;;;;;20.90;12.23;;;9.30;73.80;;;;;;5117931;28;20062;-44
2022/02/10 10:08:11;;;;;;;20.55;13.45;;;9.30;73.50;;;;;;5117016;28;20468;-36
2022/02/10 10:21:17;;;;;;;18.67;12.38;;;9.30;72.50;;;;;;5117523;28;20081;-37
2022/02/10 10:24:29;;;;;;;18.20;13.00;;;9.40;72.30;;;;;;5117338;27;20027;-36
2022/02/10 10:57:10;;;;;;;22.38;13.20;;;9.00;72.40;;;;;;5115330;27;20027;-38
2022/02/10 10:59:55;;;;;;;18.42;11.95;;;9.00;72.60;;;;;;5117003;28;20065;-36
2022/02/10 13:02:51;;;;;;;16.92;10.90;;;8.90;73.90;;;;;;5114648;28;20048;-43
2022/02/10 14:18:13;;;;;;;15.02;9.55;;;9.00;72.90;;;;;;5096874;28;20055;-36
2022/02/10 14:20:55;;;;;;;21.90;14.68;;;9.00;72.90;;;;;;5096887;28;20064;-42
2022/02/10 14:28:21;;;;;;;17.25;10.18;;;8.90;72.70;;;;;;5097232;28;20220;-37
2022/02/10 14:30:50;;;;;;;15.05;9.77;;;8.90;72.70;;;;;;5096960;28;20024;-43
2022/02/10 14:33:27;;;;;;;20.30;10.07;;;8.90;72.70;;;;;;5096248;28;20438;-43
2022/02/10 14:36:11;;;;;;;20.73;12.90;;;8.90;72.60;;;;;;5097049;28;20059;-42
2022/02/10 16:15:11;;;;;;;22.13;12.35;;;8.50;72.10;;;;;;5095832;28;20039;-36
2022/02/10 16:17:27;;;;;;;20.63;12.40;;;8.50;72.20;;;;;;5094760;28;20032;-43
2022/02/10 16:19:54;;;;;;;19.63;13.57;;;8.50;72.30;;;;;;5095678;28;20070;-37
2022/02/10 16:24:50;;;;;;;18.75;12.70;;;8.50;72.50;;;;;;5095602;28;20036;-42
2022/02/10 16:27:25;;;;;;;21.25;13.93;;;8.50;72.50;;;;;;5094710;28;20102;-36
2022/02/10 16:29:57;;;;;;;20.52;12.70;;;8.50;72.50;;;;;;5095675;28;20047;-37
2022/02/10 16:32:23;;;;;;;20.92;12.23;;;8.50;72.50;;;;;;5094876;28;20028;-37
2022/02/10 16:34:49;;;;;;;27.52;13.25;;;8.50;72.50;;;;;;5095135;28;20051;-37
2022/02/10 16:37:15;;;;;;;24.70;14.07;;;8.50;72.50;;;;;;5095069;28;20031;-42
2022/02/10 16:39:41;;;;;;;18.75;11.63;;;8.50;72.50;;;;;;5095391;28;20416;-42
2022/02/10 16:42:09;;;;;;;17.55;11.77;;;8.50;72.50;;;;;;5094785;28;20032;-42
2022/02/10 16:44:37;;;;;;;16.75;11.60;;;8.40;72.50;;;;;;5095424;28;20540;-36
2022/02/10 16:47:03;;;;;;;20.42;12.20;;;8.40;72.60;;;;;;5095337;28;20081;-43
2022/02/10 16:49:29;;;;;;;19.88;13.05;;;8.40;72.60;;;;;;5095690;28;20024;-44
2022/02/10 16:51:56;;;;;;;19.80;12.27;;;8.40;72.60;;;;;;5095032;28;20058;-43
2022/02/10 16:57:20;;;;;;;18.77;12.00;;;8.40;72.70;;;;;;5099316;28;20107;-42
2022/02/10 17:18:51;;;;;;;18.80;12.27;;;8.20;72.70;;;;;;5098611;28;20039;-36
2022/02/10 17:29:09;;;;;;;20.30;12.63;;;8.00;72.70;;;;;;5098783;28;20060;-42
2022/02/10 17:31:54;;;;;;;19.98;11.77;;;8.00;72.70;;;;;;5098268;28;20032;-42
2022/02/10 17:34:40;;;;;;;17.83;12.00;;;7.90;72.80;;;;;;5099073;28;20043;-36
2022/02/10 17:37:28;;;;;;;18.23;12.25;;;7.80;72.90;;;;;;5098723;28;20309;-36
2022/02/10 17:53:10;;;;;;;22.65;14.07;;;7.40;73.20;;;;;;5098443;28;20272;-36
2022/02/10 17:55:36;;;;;;;18.75;12.23;;;7.30;73.40;;;;;;5098500;28;20036;-43
2022/02/10 17:58:02;;;;;;;20.45;12.18;;;7.20;73.60;;;;;;5097801;28;20081;-36
2022/02/10 18:00:28;;;;;;;18.08;11.75;;;7.20;73.70;;;;;;5098825;28;20115;-37
2022/02/10 18:02:58;;;;;;;19.30;11.73;;;7.10;73.90;;;;;;5097822;28;20024;-36
2022/02/10 18:08:04;;;;;;;15.35;10.70;;;7.10;74.20;;;;;;5098154;28;20031;-36
2022/02/10 18:15:42;;;;;;;20.45;14.38;;;7.00;74.60;;;;;;5098254;28;20093;-42
2022/02/10 18:18:19;;;;;;;18.58;12.32;;;6.90;74.70;;;;;;5097883;28;20035;-36
2022/02/10 18:20:52;;;;;;;16.75;11.10;;;6.90;74.90;;;;;;5097878;28;20077;-36
2022/02/10 18:23:23;;;;;;;17.38;10.55;;;6.80;75.20;;;;;;5097477;28;20024;-41
2022/02/10 18:25:59;;;;;;;18.73;11.27;;;6.80;75.40;;;;;;5097981;28;20320;-42
2022/02/10 18:28:35;;;;;;;16.45;10.68;;;6.80;75.40;;;;;;5097524;28;20072;-36
2022/02/10 18:33:40;;;;;;;19.95;11.13;;;6.80;75.60;;;;;;5097440;28;20331;-36
2022/02/10 19:09:23;;;;;;;27.00;16.02;;;6.60;76.50;;;;;;5096941;28;20069;-42
2022/02/10 19:11:56;;;;;;;29.88;18.52;;;6.50;76.60;;;;;;5097168;28;20040;-42
2022/02/10 19:14:22;;;;;;;24.45;15.05;;;6.50;76.50;;;;;;5097194;28;20159;-42
2022/02/10 19:16:47;;;;;;;26.92;15.25;;;6.50;76.60;;;;;;5096444;28;20107;-42
2022/02/10 19:19:15;;;;;;;24.52;15.02;;;6.50;76.70;;;;;;5096266;28;20039;-42
2022/02/10 19:21:40;;;;;;;25.85;15.15;;;6.40;77.30;;;;;;5096673;28;20409;-36
2022/02/10 19:24:06;;;;;;;27.75;15.95;;;6.40;76.90;;;;;;5096885;28;20056;-37
2022/02/10 19:26:32;;;;;;;26.90;16.45;;;6.30;77.00;;;;;;5096881;28;20058;-36
2022/02/10 19:28:58;;;;;;;27.02;17.23;;;6.30;77.20;;;;;;5096569;28;20320;-41
2022/02/10 19:31:25;;;;;;;25.98;15.38;;;6.20;77.60;;;;;;5097002;28;20034;-41
2022/02/10 19:33:52;;;;;;;26.08;16.00;;;6.20;78.00;;;;;;5095154;28;20027;-36
2022/02/10 19:36:18;;;;;;;26.42;15.35;;;6.20;78.10;;;;;;5096937;28;20039;-40
2022/02/10 19:38:44;;;;;;;26.45;15.57;;;6.10;78.40;;;;;;5096452;28;20312;-42
2022/02/10 19:41:10;;;;;;;23.90;14.93;;;6.10;78.50;;;;;;5096691;28;20032;-36
2022/02/10 19:43:37;;;;;;;25.90;15.77;;;6.10;78.60;;;;;;5096131;28;20020;-36
2022/02/10 19:46:02;;;;;;;28.00;15.30;;;6.10;78.60;;;;;;5096648;28;20046;-41
2022/02/10 19:48:28;;;;;;;24.25;14.75;;;6.10;78.70;;;;;;5096039;28;20491;-36
2022/02/10 19:50:54;;;;;;;25.83;15.48;;;6.10;78.90;;;;;;5095992;28;20096;-36
2022/02/10 19:53:22;;;;;;;24.08;14.95;;;6.10;79.00;;;;;;5096217;28;20092;-37
2022/02/10 19:55:50;;;;;;;25.38;14.27;;;6.10;79.10;;;;;;5096589;28;20122;-39
2022/02/10 19:58:21;;;;;;;27.65;13.98;;;6.10;79.20;;;;;;5095990;28;20111;-42
2022/02/10 20:00:48;;;;;;;26.80;15.15;;;6.10;79.30;;;;;;5096487;28;20044;-40
2022/02/10 20:03:17;;;;;;;25.42;14.50;;;6.10;79.40;;;;;;5095766;28;20438;-36
2022/02/10 20:05:45;;;;;;;26.02;14.75;;;6.00;79.50;;;;;;5096457;28;20161;-42
2022/02/10 20:08:13;;;;;;;30.75;15.07;;;6.00;79.60;;;;;;5095942;28;20020;-41
2022/02/10 20:10:38;;;;;;;28.70;14.63;;;6.10;79.80;;;;;;5096389;28;20115;-39
2022/02/10 20:13:04;;;;;;;27.92;14.93;;;6.00;79.70;;;;;;5095776;28;20103;-37
2022/02/10 20:15:33;;;;;;;23.73;13.80;;;6.00;79.70;;;;;;5096268;28;20101;-36
2022/02/10 20:18:05;;;;;;;25.58;15.93;;;6.00;79.70;;;;;;5096062;28;20076;-36
2022/02/10 20:20:31;;;;;;;32.30;16.02;;;6.00;79.60;;;;;;5096266;28;20335;-36
2022/02/10 20:22:57;;;;;;;27.90;15.95;;;6.00;79.60;;;;;;5095885;28;20028;-36
2022/02/10 20:25:23;;;;;;;29.75;17.08;;;6.00;79.50;;;;;;5096392;28;20477;-41
2022/02/10 20:27:49;;;;;;;31.63;16.90;;;6.10;79.70;;;;;;5095959;28;20035;-36
2022/02/10 20:30:15;;;;;;;25.23;15.23;;;6.10;79.60;;;;;;5099758;28;20320;-36
2022/02/10 20:32:41;;;;;;;28.77;15.70;;;6.10;79.40;;;;;;5099700;28;20024;-37
2022/02/10 20:35:09;;;;;;;36.58;21.20;;;6.10;79.30;;;;;;5100083;28;20028;-40
2022/02/10 20:37:35;;;;;;;29.13;16.73;;;6.10;79.10;;;;;;5099645;28;20028;-36
2022/02/10 20:40:03;;;;;;;27.67;17.33;;;6.10;79.10;;;;;;5100119;28;20085;-41
2022/02/10 20:42:30;;;;;;;25.17;15.40;;;6.10;79.00;;;;;;5099788;28;20327;-36
2022/02/10 20:44:56;;;;;;;27.13;16.58;;;6.10;78.90;;;;;;5099658;28;20040;-40
2022/02/10 20:47:25;;;;;;;31.38;17.90;;;6.10;78.80;;;;;;5099784;28;20032;-37
2022/02/10 20:49:51;;;;;;;34.72;19.60;;;6.10;78.50;;;;;;5099828;28;20035;-36
2022/02/10 20:52:16;;;;;;;33.08;17.25;;;6.10;78.40;;;;;;5099290;28;20431;-42
2022/02/10 20:54:42;;;;;;;31.35;18.38;;;6.00;78.10;;;;;;5099764;28;20046;-42
2022/02/10 20:57:08;;;;;;;37.20;20.67;;;6.00;78.00;;;;;;5099230;28;20407;-36
2022/02/10 20:59:39;;;;;;;34.83;18.75;;;5.90;77.80;;;;;;5099679;28;20110;-40
2022/02/10 21:04:36;;;;;;;37.33;21.67;;;5.80;77.70;;;;;;5099233;28;20044;-36
2022/02/10 21:12:08;;;;;;;40.22;22.52;;;5.70;77.80;;;;;;5099353;28;20055;-40
2022/02/10 21:14:33;;;;;;;37.35;21.33;;;5.60;77.90;;;;;;5099484;28;20038;-42
2022/02/10 21:17:07;;;;;;;33.35;19.83;;;5.50;78.00;;;;;;5099009;28;20370;-36
2022/02/10 21:19:34;;;;;;;37.58;21.23;;;5.50;78.10;;;;;;5099253;28;20374;-35
2022/02/10 21:22:06;;;;;;;39.25;22.23;;;5.50;78.20;;;;;;5099044;28;20044;-36
2022/02/10 21:24:31;;;;;;;32.75;20.15;;;5.40;78.30;;;;;;5099154;28;20032;-40
2022/02/10 21:29:39;;;;;;;41.15;22.77;;;5.30;78.30;;;;;;5098932;28;20127;-40
2022/02/10 21:32:05;;;;;;;41.78;23.02;;;5.30;78.20;;;;;;5098910;28;20378;-37
2022/02/10 21:34:36;;;;;;;39.30;21.63;;;5.20;78.30;;;;;;5098845;28;20073;-42
2022/02/10 21:37:11;;;;;;;38.90;21.52;;;5.20;78.60;;;;;;5098931;28;20205;-36
2022/02/10 21:39:52;;;;;;;44.35;22.40;;;5.10;78.70;;;;;;5098939;28;20040;-40
2022/02/10 21:47:56;;;;;;;39.13;21.10;;;5.10;79.20;;;;;;5098579;28;20051;-35
2022/02/10 22:19:16;;;;;;;42.20;21.58;;;5.30;80.50;;;;;;5098179;28;20082;-36
2022/02/10 22:21:54;;;;;;;36.17;19.95;;;5.30;80.50;;;;;;5097763;28;20059;-36
2022/02/10 22:24:21;;;;;;;34.67;20.25;;;5.40;80.60;;;;;;5097955;28;20028;-42
2022/02/10 22:26:49;;;;;;;38.42;21.08;;;5.40;80.60;;;;;;5097379;28;20058;-41
2022/02/10 22:29:21;;;;;;;38.13;21.17;;;5.40;80.70;;;;;;5097802;28;20024;-36
2022/02/10 22:36:56;;;;;;;35.42;19.08;;;5.50;80.90;;;;;;5097465;28;20039;-35
2022/02/10 22:39:22;;;;;;;33.53;17.85;;;5.60;80.90;;;;;;5097934;28;20331;-36
2022/02/10 22:41:48;;;;;;;41.33;20.75;;;5.60;80.70;;;;;;5095463;28;20074;-40
2022/02/10 22:44:14;;;;;;;38.05;20.65;;;5.60;80.60;;;;;;5096877;28;20024;-42
2022/02/10 22:46:41;;;;;;;40.65;20.80;;;5.60;80.60;;;;;;5097397;28;20025;-36
2022/02/10 22:49:07;;;;;;;34.53;19.67;;;5.60;80.50;;;;;;5097782;28;20044;-40
2022/02/10 22:51:34;;;;;;;36.65;21.30;;;5.60;80.50;;;;;;5096520;28;20441;-36
2022/02/10 22:54:01;;;;;;;37.03;20.33;;;5.60;80.50;;;;;;5097161;28;20039;-36
2022/02/10 22:56:31;;;;;;;35.08;18.98;;;5.50;80.60;;;;;;5097584;28;20031;-36
2022/02/10 22:58:59;;;;;;;39.03;20.23;;;5.60;80.70;;;;;;5097533;28;20536;-40
2022/02/10 23:01:25;;;;;;;39.97;22.05;;;5.60;80.70;;;;;;5097704;28;20301;-36
2022/02/10 23:03:52;;;;;;;35.97;20.23;;;5.60;80.70;;;;;;5096666;28;20032;-37
2022/02/10 23:06:17;;;;;;;39.88;22.17;;;5.60;80.70;;;;;;5096889;28;20029;-38
2022/02/10 23:08:44;;;;;;;37.58;21.38;;;5.50;80.70;;;;;;5096780;28;20028;-37
2022/02/10 23:11:11;;;;;;;36.42;20.42;;;5.60;80.70;;;;;;5097277;28;20039;-40
2022/02/10 23:13:43;;;;;;;39.63;22.10;;;5.60;80.70;;;;;;5096735;28;20089;-35
2022/02/10 23:16:09;;;;;;;40.33;23.50;;;5.60;80.60;;;;;;5097176;28;20042;-36
2022/02/10 23:18:36;;;;;;;44.08;22.65;;;5.60;80.60;;;;;;5096437;28;20032;-37
2022/02/10 23:21:06;;;;;;;40.63;22.88;;;5.60;80.50;;;;;;5097123;28;20059;-36
2022/02/10 23:23:34;;;;;;;36.65;22.40;;;5.60;80.60;;;;;;5096736;28;20039;-37
2022/02/10 23:26:01;;;;;;;44.22;22.70;;;5.60;80.50;;;;;;5096805;28;20107;-36
2022/02/10 23:28:33;;;;;;;41.85;22.50;;;5.60;80.50;;;;;;5096747;28;20430;-40
2022/02/10 23:31:00;;;;;;;44.05;24.35;;;5.50;80.50;;;;;;5097068;28;20055;-36
2022/02/10 23:39:13;;;;;;;43.33;23.08;;;5.50;80.60;;;;;;5096787;28;20119;-36
2022/02/10 23:44:00;;;;;;;41.38;22.42;;;5.50;80.80;;;;;;5096167;28;20078;-36
2022/02/10 23:46:26;;;;;;;43.00;22.38;;;5.50;81.00;;;;;;5096728;28;20047;-40
2022/02/10 23:48:54;;;;;;;42.33;23.40;;;5.50;80.80;;;;;;5096075;28;20111;-36
2022/02/10 23:51:23;;;;;;;42.08;23.52;;;5.50;80.70;;;;;;5096251;28;20064;-37
2022/02/10 23:53:48;;;;;;;41.95;23.27;;;5.50;80.60;;;;;;5096014;28;20044;-36
2022/02/10 23:56:17;;;;;;;45.28;24.60;;;5.50;80.60;;;;;;5096692;28;20032;-37
